sensor_id;sensor_type;location;lat;lon;timestamp;pressure;altitude;pressure_sealevel;temperature;humidity
62124;BME280;48110;47.532;19.078;2022-10-26T00:02:26;100874.66;;;9.99;100.00
62124;BME280;48110;47.532;19.078;2022-10-26T00:05:36;100874.37;;;10.02;100.00
62124;BME280;48110;47.532;19.078;2022-10-26T00:08:43;100880.34;;;10.04;100.00
62124;BME280;48110;47.532;19.078;2022-10-26T00:11:52;100886.16;;;10.08;100.00
62124;BME280;48110;47.532;19.078;2022-10-26T00:14:58;100890.63;;;10.07;100.00
62124;BME280;48110;47.532;19.078;2022-10-26T00:18:05;100890.09;;;10.03;100.00
62124;BME280;48110;47.532;19.078;2022-10-26T00:21:11;100894.19;;;9.98;100.00
62124;BME280;48110;47.532;19.078;2022-10-26T00:24:19;100901.16;;;9.99;100.00
62124;BME280;48110;47.532;19.078;2022-10-26T00:27:26;100895.47;;;9.94;100.00
62124;BME280;48110;47.532;19.078;2022-10-26T00:30:37;100890.19;;;9.94;100.00
62124;BME280;48110;47.532;19.078;2022-10-26T00:33:43;100889.72;;;9.98;100.00
62124;BME280;48110;47.532;19.078;2022-10-26T00:36:54;100895.19;;;9.97;100.00
62124;BME280;48110;47.532;19.078;2022-10-26T00:39:59;100889.81;;;9.89;100.00
62124;BME280;48110;47.532;19.078;2022-10-26T00:46:26;100896.00;;;9.97;100.00
62124;BME280;48110;47.532;19.078;2022-10-26T00:49:34;100889.59;;;10.00;100.00
62124;BME280;48110;47.532;19.078;2022-10-26T00:52:43;100885.34;;;9.89;100.00
62124;BME280;48110;47.532;19.078;2022-10-26T00:55:53;100886.69;;;9.76;100.00
62124;BME280;48110;47.532;19.078;2022-10-26T00:59:00;100879.78;;;9.65;100.00
62124;BME280;48110;47.532;19.078;2022-10-26T01:02:07;100875.53;;;9.54;100.00
62124;BME280;48110;47.532;19.078;2022-10-26T01:05:14;100877.78;;;9.49;100.00
62124;BME280;48110;47.532;19.078;2022-10-26T01:08:21;100889.41;;;9.48;100.00
62124;BME280;48110;47.532;19.078;2022-10-26T01:11:28;100884.69;;;9.42;100.00
62124;BME280;48110;47.532;19.078;2022-10-26T01:14:36;100883.06;;;9.32;100.00
62124;BME280;48110;47.532;19.078;2022-10-26T01:17:53;100887.25;;;9.25;100.00
62124;BME280;48110;47.532;19.078;2022-10-26T01:24:20;100883.03;;;9.14;100.00
62124;BME280;48110;47.532;19.078;2022-10-26T01:30:40;100876.09;;;9.03;100.00
62124;BME280;48110;47.532;19.078;2022-10-26T01:33:50;100874.28;;;9.04;100.00
62124;BME280;48110;47.532;19.078;2022-10-26T01:37:04;100879.56;;;9.04;100.00
62124;BME280;48110;47.532;19.078;2022-10-26T01:40:15;100877.75;;;9.04;100.00
62124;BME280;48110;47.532;19.078;2022-10-26T01:43:22;100875.25;;;9.03;100.00
62124;BME280;48110;47.532;19.078;2022-10-26T01:46:32;100869.56;;;8.98;100.00
62124;BME280;48110;47.532;19.078;2022-10-26T01:49:41;100865.53;;;8.94;100.00
62124;BME280;48110;47.532;19.078;2022-10-26T01:52:51;100862.81;;;8.86;100.00
62124;BME280;48110;47.532;19.078;2022-10-26T01:56:00;100873.78;;;8.81;100.00
62124;BME280;48110;47.532;19.078;2022-10-26T02:15:48;100871.09;;;8.54;100.00
62124;BME280;48110;47.532;19.078;2022-10-26T02:22:06;100860.53;;;8.44;100.00
62124;BME280;48110;47.532;19.078;2022-10-26T02:25:19;100854.72;;;8.41;100.00
62124;BME280;48110;47.532;19.078;2022-10-26T02:28:34;100856.09;;;8.35;100.00
62124;BME280;48110;47.532;19.078;2022-10-26T02:31:40;100862.38;;;8.34;100.00
62124;BME280;48110;47.532;19.078;2022-10-26T02:34:51;100868.47;;;8.35;100.00
62124;BME280;48110;47.532;19.078;2022-10-26T02:38:01;100855.81;;;8.38;100.00
62124;BME280;48110;47.532;19.078;2022-10-26T02:41:13;100860.69;;;8.33;100.00
62124;BME280;48110;47.532;19.078;2022-10-26T02:44:24;100859.16;;;8.31;100.00
62124;BME280;48110;47.532;19.078;2022-10-26T02:47:31;100860.97;;;8.30;100.00
62124;BME280;48110;47.532;19.078;2022-10-26T02:53:53;100868.16;;;8.28;100.00
62124;BME280;48110;47.532;19.078;2022-10-26T02:57:13;100875.56;;;8.24;100.00
62124;BME280;48110;47.532;19.078;2022-10-26T03:00:20;100885.44;;;8.22;100.00
62124;BME280;48110;47.532;19.078;2022-10-26T03:03:26;100889.31;;;8.18;100.00
62124;BME280;48110;47.532;19.078;2022-10-26T03:06:32;100879.34;;;8.12;100.00
62124;BME280;48110;47.532;19.078;2022-10-26T03:09:39;100883.63;;;8.13;100.00
62124;BME280;48110;47.532;19.078;2022-10-26T03:12:48;100889.31;;;8.09;100.00
62124;BME280;48110;47.532;19.078;2022-10-26T03:15:57;100883.63;;;8.04;100.00
62124;BME280;48110;47.532;19.078;2022-10-26T03:19:03;100886.84;;;7.98;100.00
62124;BME280;48110;47.532;19.078;2022-10-26T03:22:11;100894.06;;;7.96;100.00
62124;BME280;48110;47.532;19.078;2022-10-26T03:25:20;100899.47;;;7.94;100.00
62124;BME280;48110;47.532;19.078;2022-10-26T03:28:27;100898.66;;;8.03;100.00
62124;BME280;48110;47.532;19.078;2022-10-26T03:31:35;100900.19;;;7.96;100.00
62124;BME280;48110;47.532;19.078;2022-10-26T03:34:40;100905.88;;;7.92;100.00
62124;BME280;48110;47.532;19.078;2022-10-26T03:37:49;100903.38;;;7.90;100.00
62124;BME280;48110;47.532;19.078;2022-10-26T03:40:59;100906.00;;;7.90;100.00
62124;BME280;48110;47.532;19.078;2022-10-26T03:44:06;100904.91;;;7.93;100.00
62124;BME280;48110;47.532;19.078;2022-10-26T03:47:12;100913.09;;;7.90;100.00
62124;BME280;48110;47.532;19.078;2022-10-26T03:50:20;100905.47;;;7.86;100.00
62124;BME280;48110;47.532;19.078;2022-10-26T03:53:27;100908.37;;;7.83;100.00
62124;BME280;48110;47.532;19.078;2022-10-26T03:56:34;100912.41;;;7.87;100.00
62124;BME280;48110;47.532;19.078;2022-10-26T03:59:42;100919.78;;;7.84;100.00
62124;BME280;48110;47.532;19.078;2022-10-26T04:02:56;100927.00;;;7.82;100.00
62124;BME280;48110;47.532;19.078;2022-10-26T04:06:03;100927.12;;;7.80;100.00
62124;BME280;48110;47.532;19.078;2022-10-26T04:09:09;100926.44;;;7.78;100.00
62124;BME280;48110;47.532;19.078;2022-10-26T04:12:16;100912.41;;;7.87;100.00
62124;BME280;48110;47.532;19.078;2022-10-26T04:15:21;100918.53;;;7.88;100.00
62124;BME280;48110;47.532;19.078;2022-10-26T04:18:28;100928.28;;;7.87;100.00
62124;BME280;48110;47.532;19.078;2022-10-26T04:21:35;100924.78;;;7.87;100.00
62124;BME280;48110;47.532;19.078;2022-10-26T04:24:43;100926.31;;;7.90;100.00
62124;BME280;48110;47.532;19.078;2022-10-26T04:27:49;100920.19;;;7.89;100.00
62124;BME280;48110;47.532;19.078;2022-10-26T04:30:57;100923.81;;;7.88;100.00
62124;BME280;48110;47.532;19.078;2022-10-26T04:34:04;100925.63;;;7.87;100.00
62124;BME280;48110;47.532;19.078;2022-10-26T04:37:12;100928.28;;;7.87;100.00
62124;BME280;48110;47.532;19.078;2022-10-26T04:40:16;100924.09;;;7.85;100.00
62124;BME280;48110;47.532;19.078;2022-10-26T04:43:21;100925.19;;;7.82;100.00
62124;BME280;48110;47.532;19.078;2022-10-26T04:46:24;100932.84;;;7.85;100.00
62124;BME280;48110;47.532;19.078;2022-10-26T04:49:27;100927.97;;;7.81;100.00
62124;BME280;48110;47.532;19.078;2022-10-26T04:52:29;100930.91;;;7.78;100.00
62124;BME280;48110;47.532;19.078;2022-10-26T04:55:33;100935.47;;;7.76;100.00
62124;BME280;48110;47.532;19.078;2022-10-26T04:58:37;100925.63;;;7.78;100.00
62124;BME280;48110;47.532;19.078;2022-10-26T05:01:39;100935.88;;;7.71;100.00
62124;BME280;48110;47.532;19.078;2022-10-26T05:04:42;100932.97;;;7.65;100.00
62124;BME280;48110;47.532;19.078;2022-10-26T05:07:52;100927.94;;;7.62;100.00
62124;BME280;48110;47.532;19.078;2022-10-26T05:10:56;100923.50;;;7.62;100.00
62124;BME280;48110;47.532;19.078;2022-10-26T05:14:01;100920.12;;;7.60;100.00
62124;BME280;48110;47.532;19.078;2022-10-26T05:17:04;100927.63;;;7.55;100.00
62124;BME280;48110;47.532;19.078;2022-10-26T05:20:09;100930.25;;;7.55;100.00
62124;BME280;48110;47.532;19.078;2022-10-26T05:23:16;100933.06;;;7.54;100.00
62124;BME280;48110;47.532;19.078;2022-10-26T05:26:21;100944.31;;;7.56;100.00
62124;BME280;48110;47.532;19.078;2022-10-26T05:29:26;100943.62;;;7.54;100.00
62124;BME280;48110;47.532;19.078;2022-10-26T05:32:30;100956.25;;;7.50;100.00
62124;BME280;48110;47.532;19.078;2022-10-26T05:35:33;100957.34;;;7.48;100.00
62124;BME280;48110;47.532;19.078;2022-10-26T05:38:38;100960.84;;;7.48;100.00
62124;BME280;48110;47.532;19.078;2022-10-26T05:41:43;100953.62;;;7.50;100.00
62124;BME280;48110;47.532;19.078;2022-10-26T05:44:46;100957.06;;;7.51;100.00
62124;BME280;48110;47.532;19.078;2022-10-26T05:47:49;100953.34;;;7.53;100.00
62124;BME280;48110;47.532;19.078;2022-10-26T05:50:52;100951.53;;;7.54;100.00
62124;BME280;48110;47.532;19.078;2022-10-26T05:53:55;100959.91;;;7.59;100.00
62124;BME280;48110;47.532;19.078;2022-10-26T05:56:58;100955.06;;;7.64;100.00
62124;BME280;48110;47.532;19.078;2022-10-26T06:00:01;100966.16;;;7.67;100.00
62124;BME280;48110;47.532;19.078;2022-10-26T06:06:20;100970.09;;;7.73;100.00
62124;BME280;48110;47.532;19.078;2022-10-26T06:09:24;100969.97;;;7.74;100.00
62124;BME280;48110;47.532;19.078;2022-10-26T06:12:28;100974.69;;;7.80;100.00
62124;BME280;48110;47.532;19.078;2022-10-26T06:15:31;100978.59;;;7.86;100.00
62124;BME280;48110;47.532;19.078;2022-10-26T06:18:43;100975.41;;;7.92;100.00
62124;BME280;48110;47.532;19.078;2022-10-26T06:25:03;100983.06;;;8.05;100.00
62124;BME280;48110;47.532;19.078;2022-10-26T06:28:15;100991.00;;;8.14;100.00
62124;BME280;48110;47.532;19.078;2022-10-26T06:31:25;100994.09;;;8.29;100.00
62124;BME280;48110;47.532;19.078;2022-10-26T06:34:31;100987.88;;;8.40;100.00
62124;BME280;48110;47.532;19.078;2022-10-26T06:37:36;100999.28;;;8.50;100.00
62124;BME280;48110;47.532;19.078;2022-10-26T06:40:39;100988.56;;;8.61;100.00
62124;BME280;48110;47.532;19.078;2022-10-26T06:43:45;100988.12;;;8.75;100.00
62124;BME280;48110;47.532;19.078;2022-10-26T06:46:54;100984.78;;;8.83;100.00
62124;BME280;48110;47.532;19.078;2022-10-26T06:56:25;101006.28;;;9.16;100.00
62124;BME280;48110;47.532;19.078;2022-10-26T06:59:30;101010.16;;;9.32;100.00
62124;BME280;48110;47.532;19.078;2022-10-26T07:02:34;101014.00;;;9.47;100.00
62124;BME280;48110;47.532;19.078;2022-10-26T07:05:37;101008.50;;;9.68;100.00
62124;BME280;48110;47.532;19.078;2022-10-26T07:08:43;101013.25;;;9.91;100.00
62124;BME280;48110;47.532;19.078;2022-10-26T07:11:48;101013.03;;;10.02;100.00
62124;BME280;48110;47.532;19.078;2022-10-26T07:14:53;101014.69;;;10.03;100.00
62124;BME280;48110;47.532;19.078;2022-10-26T07:17:56;101015.53;;;10.04;100.00
62124;BME280;48110;47.532;19.078;2022-10-26T07:21:00;101013.78;;;10.13;100.00
62124;BME280;48110;47.532;19.078;2022-10-26T07:24:03;101002.50;;;10.20;100.00
62124;BME280;48110;47.532;19.078;2022-10-26T07:27:07;101016.53;;;10.30;100.00
62124;BME280;48110;47.532;19.078;2022-10-26T07:30:13;101011.81;;;10.42;100.00
62124;BME280;48110;47.532;19.078;2022-10-26T07:33:17;101019.41;;;10.55;100.00
62124;BME280;48110;47.532;19.078;2022-10-26T07:36:21;101023.22;;;10.96;100.00
62124;BME280;48110;47.532;19.078;2022-10-26T07:39:27;101030.44;;;11.03;100.00
62124;BME280;48110;47.532;19.078;2022-10-26T07:42:34;101018.44;;;11.25;100.00
62124;BME280;48110;47.532;19.078;2022-10-26T07:45:38;101027.56;;;11.82;100.00
62124;BME280;48110;47.532;19.078;2022-10-26T07:48:41;101032.25;;;13.90;100.00
62124;BME280;48110;47.532;19.078;2022-10-26T07:51:45;101032.88;;;14.85;100.00
62124;BME280;48110;47.532;19.078;2022-10-26T07:54:50;101031.91;;;15.53;98.31
62124;BME280;48110;47.532;19.078;2022-10-26T07:57:55;101035.59;;;15.67;94.64
62124;BME280;48110;47.532;19.078;2022-10-26T08:01:09;101031.91;;;16.18;95.15
62124;BME280;48110;47.532;19.078;2022-10-26T08:04:13;101032.22;;;16.59;88.63
62124;BME280;48110;47.532;19.078;2022-10-26T08:07:16;101024.38;;;17.07;86.69
62124;BME280;48110;47.532;19.078;2022-10-26T08:10:18;101032.97;;;17.86;81.34
62124;BME280;48110;47.532;19.078;2022-10-26T08:13:22;101025.72;;;17.52;81.07
62124;BME280;48110;47.532;19.078;2022-10-26T08:16:25;101026.06;;;16.86;83.76
62124;BME280;48110;47.532;19.078;2022-10-26T08:19:28;101023.94;;;15.45;92.49
62124;BME280;48110;47.532;19.078;2022-10-26T08:22:32;101015.25;;;14.76;99.76
62124;BME280;48110;47.532;19.078;2022-10-26T08:25:35;101025.91;;;13.91;100.00
62124;BME280;48110;47.532;19.078;2022-10-26T08:28:38;101022.78;;;13.88;100.00
62124;BME280;48110;47.532;19.078;2022-10-26T08:31:41;101022.12;;;13.31;100.00
62124;BME280;48110;47.532;19.078;2022-10-26T08:34:45;101025.41;;;13.41;100.00
62124;BME280;48110;47.532;19.078;2022-10-26T08:37:50;101021.94;;;13.32;100.00
62124;BME280;48110;47.532;19.078;2022-10-26T08:40:56;101029.94;;;13.40;100.00
62124;BME280;48110;47.532;19.078;2022-10-26T08:44:01;101022.25;;;13.37;100.00
62124;BME280;48110;47.532;19.078;2022-10-26T08:47:20;101025.06;;;13.52;100.00
62124;BME280;48110;47.532;19.078;2022-10-26T08:53:31;101031.50;;;13.74;100.00
62124;BME280;48110;47.532;19.078;2022-10-26T08:56:46;101024.69;;;13.63;100.00
62124;BME280;48110;47.532;19.078;2022-10-26T08:59:54;101032.50;;;13.73;100.00
62124;BME280;48110;47.532;19.078;2022-10-26T09:02:58;101032.69;;;13.63;100.00
62124;BME280;48110;47.532;19.078;2022-10-26T09:09:16;101034.31;;;13.72;100.00
62124;BME280;48110;47.532;19.078;2022-10-26T09:22:03;101037.09;;;13.87;100.00
62124;BME280;48110;47.532;19.078;2022-10-26T09:25:15;101039.50;;;14.05;100.00
62124;BME280;48110;47.532;19.078;2022-10-26T09:28:19;101043.63;;;14.15;100.00
62124;BME280;48110;47.532;19.078;2022-10-26T09:31:23;101049.28;;;14.20;100.00
62124;BME280;48110;47.532;19.078;2022-10-26T09:34:31;101054.03;;;14.33;100.00
62124;BME280;48110;47.532;19.078;2022-10-26T09:37:36;101051.16;;;14.51;100.00
62124;BME280;48110;47.532;19.078;2022-10-26T09:43:48;101054.66;;;14.74;100.00
62124;BME280;48110;47.532;19.078;2022-10-26T09:47:04;101059.69;;;14.92;100.00
62124;BME280;48110;47.532;19.078;2022-10-26T09:50:20;101062.94;;;15.02;100.00
62124;BME280;48110;47.532;19.078;2022-10-26T09:53:24;101055.41;;;15.05;100.00
62124;BME280;48110;47.532;19.078;2022-10-26T09:56:27;101062.66;;;15.34;100.00
62124;BME280;48110;47.532;19.078;2022-10-26T09:59:32;101060.28;;;15.39;100.00
62124;BME280;48110;47.532;19.078;2022-10-26T10:02:37;101062.06;;;15.61;100.00
62124;BME280;48110;47.532;19.078;2022-10-26T10:05:43;101065.13;;;15.58;100.00
62124;BME280;48110;47.532;19.078;2022-10-26T10:12:17;101064.25;;;15.43;100.00
62124;BME280;48110;47.532;19.078;2022-10-26T10:15:23;101067.13;;;16.00;100.00
62124;BME280;48110;47.532;19.078;2022-10-26T10:18:28;101066.56;;;16.05;100.00
62124;BME280;48110;47.532;19.078;2022-10-26T10:24:41;101072.75;;;15.61;100.00
62124;BME280;48110;47.532;19.078;2022-10-26T10:27:51;101072.75;;;15.61;100.00
62124;BME280;48110;47.532;19.078;2022-10-26T10:30:56;101075.88;;;15.65;100.00
62124;BME280;48110;47.532;19.078;2022-10-26T10:34:05;101074.78;;;16.03;100.00
62124;BME280;48110;47.532;19.078;2022-10-26T10:40:40;101074.37;;;14.96;100.00
62124;BME280;48110;47.532;19.078;2022-10-26T10:44:02;101071.16;;;15.00;100.00
62124;BME280;48110;47.532;19.078;2022-10-26T10:47:13;101068.34;;;14.94;100.00
62124;BME280;48110;47.532;19.078;2022-10-26T10:50:19;101067.81;;;14.98;100.00
62124;BME280;48110;47.532;19.078;2022-10-26T10:53:30;101058.84;;;15.81;100.00
62124;BME280;48110;47.532;19.078;2022-10-26T10:59:43;101064.06;;;16.03;100.00
62124;BME280;48110;47.532;19.078;2022-10-26T11:06:15;101065.81;;;16.47;100.00
62124;BME280;48110;47.532;19.078;2022-10-26T11:09:20;101056.66;;;16.20;100.00
62124;BME280;48110;47.532;19.078;2022-10-26T11:12:28;101053.69;;;16.51;100.00
62124;BME280;48110;47.532;19.078;2022-10-26T11:15:33;101054.59;;;16.37;100.00
62124;BME280;48110;47.532;19.078;2022-10-26T11:18:48;101059.44;;;16.63;100.00
62124;BME280;48110;47.532;19.078;2022-10-26T11:21:57;101053.38;;;16.75;100.00
62124;BME280;48110;47.532;19.078;2022-10-26T11:25:04;101055.47;;;16.59;100.00
62124;BME280;48110;47.532;19.078;2022-10-26T11:28:57;101054.59;;;16.73;100.00
62124;BME280;48110;47.532;19.078;2022-10-26T11:31:33;101048.13;;;16.67;100.00
62124;BME280;48110;47.532;19.078;2022-10-26T11:34:54;101036.47;;;16.03;100.00
62124;BME280;48110;47.532;19.078;2022-10-26T11:38:01;101043.28;;;16.77;100.00
62124;BME280;48110;47.532;19.078;2022-10-26T11:44:16;101039.69;;;17.41;96.84
62124;BME280;48110;47.532;19.078;2022-10-26T11:50:38;101043.41;;;18.95;88.19
62124;BME280;48110;47.532;19.078;2022-10-26T11:53:41;101043.19;;;18.77;86.43
62124;BME280;48110;47.532;19.078;2022-10-26T11:56:47;101038.31;;;18.40;89.32
62124;BME280;48110;47.532;19.078;2022-10-26T11:59:52;101035.00;;;18.38;89.03
62124;BME280;48110;47.532;19.078;2022-10-26T12:02:56;101035.28;;;18.02;92.10
62124;BME280;48110;47.532;19.078;2022-10-26T12:05:59;101033.66;;;17.32;96.39
62124;BME280;48110;47.532;19.078;2022-10-26T12:09:05;101037.25;;;17.18;99.06
62124;BME280;48110;47.532;19.078;2022-10-26T12:12:18;101032.84;;;16.82;100.00
62124;BME280;48110;47.532;19.078;2022-10-26T12:18:49;101033.84;;;16.81;100.00
62124;BME280;48110;47.532;19.078;2022-10-26T12:21:57;101026.78;;;17.23;100.00
62124;BME280;48110;47.532;19.078;2022-10-26T12:25:22;101035.41;;;17.53;97.23
62124;BME280;48110;47.532;19.078;2022-10-26T12:37:52;101033.22;;;17.97;95.03
62124;BME280;48110;47.532;19.078;2022-10-26T12:50:32;101021.56;;;18.31;92.56
62124;BME280;48110;47.532;19.078;2022-10-26T12:53:36;101023.09;;;18.60;90.25
62124;BME280;48110;47.532;19.078;2022-10-26T12:56:54;101028.88;;;17.96;94.29
62124;BME280;48110;47.532;19.078;2022-10-26T13:00:03;101022.16;;;18.20;92.97
62124;BME280;48110;47.532;19.078;2022-10-26T13:12:58;101022.16;;;18.20;92.09
62124;BME280;48110;47.532;19.078;2022-10-26T13:16:05;101018.81;;;17.64;95.74
62124;BME280;48110;47.532;19.078;2022-10-26T13:22:43;101012.47;;;17.78;96.86
62124;BME280;48110;47.532;19.078;2022-10-26T13:26:00;101024.13;;;17.98;93.94
62124;BME280;48110;47.532;19.078;2022-10-26T13:29:07;101027.16;;;18.30;92.44
62124;BME280;48110;47.532;19.078;2022-10-26T13:32:13;101022.63;;;17.83;95.12
62124;BME280;48110;47.532;19.078;2022-10-26T13:35:16;101019.94;;;17.83;95.91
62124;BME280;48110;47.532;19.078;2022-10-26T13:38:23;101029.41;;;17.78;98.61
62124;BME280;48110;47.532;19.078;2022-10-26T13:41:33;101025.94;;;17.85;95.99
62124;BME280;48110;47.532;19.078;2022-10-26T13:44:44;101025.72;;;17.79;96.43
62124;BME280;48110;47.532;19.078;2022-10-26T13:48:04;101020.37;;;17.52;100.00
62124;BME280;48110;47.532;19.078;2022-10-26T13:51:10;101023.69;;;16.98;100.00
62124;BME280;48110;47.532;19.078;2022-10-26T13:57:33;101032.28;;;17.15;100.00
62124;BME280;48110;47.532;19.078;2022-10-26T14:00:38;101021.69;;;17.07;100.00
62124;BME280;48110;47.532;19.078;2022-10-26T14:03:42;101019.41;;;17.04;100.00
62124;BME280;48110;47.532;19.078;2022-10-26T14:06:48;101024.44;;;17.13;100.00
62124;BME280;48110;47.532;19.078;2022-10-26T14:09:53;101030.06;;;16.97;100.00
62124;BME280;48110;47.532;19.078;2022-10-26T14:12:58;101031.31;;;16.73;100.00
62124;BME280;48110;47.532;19.078;2022-10-26T14:16:08;101031.44;;;16.65;100.00
62124;BME280;48110;47.532;19.078;2022-10-26T14:19:24;101032.50;;;16.71;100.00
62124;BME280;48110;47.532;19.078;2022-10-26T14:22:30;101032.00;;;16.61;100.00
62124;BME280;48110;47.532;19.078;2022-10-26T14:25:33;101026.34;;;16.56;100.00
62124;BME280;48110;47.532;19.078;2022-10-26T14:28:58;101031.09;;;16.53;100.00
62124;BME280;48110;47.532;19.078;2022-10-26T14:32:18;101025.03;;;16.45;100.00
62124;BME280;48110;47.532;19.078;2022-10-26T14:35:27;101029.28;;;16.39;100.00
62124;BME280;48110;47.532;19.078;2022-10-26T14:38:34;101029.28;;;16.39;100.00
62124;BME280;48110;47.532;19.078;2022-10-26T14:41:39;101028.19;;;16.34;100.00
62124;BME280;48110;47.532;19.078;2022-10-26T14:44:43;101032.53;;;16.35;100.00
62124;BME280;48110;47.532;19.078;2022-10-26T14:47:48;101021.38;;;16.31;100.00
62124;BME280;48110;47.532;19.078;2022-10-26T14:54:02;101025.56;;;16.19;100.00
62124;BME280;48110;47.532;19.078;2022-10-26T14:57:24;101029.44;;;16.17;100.00
62124;BME280;48110;47.532;19.078;2022-10-26T15:00:29;101030.81;;;16.13;100.00
62124;BME280;48110;47.532;19.078;2022-10-26T15:03:33;101027.56;;;16.17;100.00
62124;BME280;48110;47.532;19.078;2022-10-26T15:06:38;101026.87;;;16.08;100.00
62124;BME280;48110;47.532;19.078;2022-10-26T15:09:46;101018.56;;;16.03;100.00
62124;BME280;48110;47.532;19.078;2022-10-26T15:12:53;101020.09;;;15.91;100.00
62124;BME280;48110;47.532;19.078;2022-10-26T15:16:09;101024.31;;;15.86;100.00
62124;BME280;48110;47.532;19.078;2022-10-26T15:19:20;101020.94;;;15.77;100.00
62124;BME280;48110;47.532;19.078;2022-10-26T15:22:26;101034.22;;;15.71;100.00
62124;BME280;48110;47.532;19.078;2022-10-26T15:25:35;101028.75;;;15.64;100.00
62124;BME280;48110;47.532;19.078;2022-10-26T15:28:40;101029.31;;;15.59;100.00
62124;BME280;48110;47.532;19.078;2022-10-26T15:31:48;101038.94;;;15.54;100.00
62124;BME280;48110;47.532;19.078;2022-10-26T15:38:14;101046.81;;;15.47;100.00
62124;BME280;48110;47.532;19.078;2022-10-26T15:41:24;101042.66;;;15.45;100.00
62124;BME280;48110;47.532;19.078;2022-10-26T15:44:28;101047.16;;;15.44;100.00
62124;BME280;48110;47.532;19.078;2022-10-26T15:47:32;101058.41;;;15.40;100.00
62124;BME280;48110;47.532;19.078;2022-10-26T15:50:39;101061.63;;;15.35;100.00
62124;BME280;48110;47.532;19.078;2022-10-26T15:53:46;101065.69;;;15.31;100.00
62124;BME280;48110;47.532;19.078;2022-10-26T15:56:52;101057.19;;;15.28;100.00
62124;BME280;48110;47.532;19.078;2022-10-26T15:59:59;101062.25;;;15.22;100.00
62124;BME280;48110;47.532;19.078;2022-10-26T16:03:18;101066.31;;;15.18;100.00
62124;BME280;48110;47.532;19.078;2022-10-26T16:06:29;101065.34;;;15.11;100.00
62124;BME280;48110;47.532;19.078;2022-10-26T16:09:37;101062.06;;;15.09;100.00
62124;BME280;48110;47.532;19.078;2022-10-26T16:12:46;101067.56;;;15.08;100.00
62124;BME280;48110;47.532;19.078;2022-10-26T16:15:52;101065.72;;;15.08;100.00
62124;BME280;48110;47.532;19.078;2022-10-26T16:19:00;101073.91;;;15.07;100.00
62124;BME280;48110;47.532;19.078;2022-10-26T16:22:23;101082.13;;;15.05;100.00
62124;BME280;48110;47.532;19.078;2022-10-26T16:25:41;101077.13;;;15.02;100.00
62124;BME280;48110;47.532;19.078;2022-10-26T16:28:47;101075.84;;;14.98;100.00
62124;BME280;48110;47.532;19.078;2022-10-26T16:31:56;101082.19;;;14.97;100.00
62124;BME280;48110;47.532;19.078;2022-10-26T16:34:59;101089.72;;;14.94;100.00
62124;BME280;48110;47.532;19.078;2022-10-26T16:38:06;101091.94;;;14.90;100.00
62124;BME280;48110;47.532;19.078;2022-10-26T16:41:13;101091.63;;;14.85;100.00
62124;BME280;48110;47.532;19.078;2022-10-26T16:44:28;101100.81;;;14.83;100.00
62124;BME280;48110;47.532;19.078;2022-10-26T16:47:33;101101.81;;;14.82;100.00
62124;BME280;48110;47.532;19.078;2022-10-26T16:50:42;101096.69;;;14.80;100.00
62124;BME280;48110;47.532;19.078;2022-10-26T16:53:49;101095.19;;;14.77;100.00
62124;BME280;48110;47.532;19.078;2022-10-26T16:56:57;101104.41;;;14.75;100.00
62124;BME280;48110;47.532;19.078;2022-10-26T17:00:03;101106.69;;;14.78;100.00
62124;BME280;48110;47.532;19.078;2022-10-26T17:03:10;101109.28;;;14.71;100.00
62124;BME280;48110;47.532;19.078;2022-10-26T17:06:15;101104.94;;;14.70;100.00
62124;BME280;48110;47.532;19.078;2022-10-26T17:09:21;101113.47;;;14.66;100.00
62124;BME280;48110;47.532;19.078;2022-10-26T17:12:27;101117.69;;;14.83;100.00
62124;BME280;48110;47.532;19.078;2022-10-26T17:15:33;101111.72;;;14.81;100.00
62124;BME280;48110;47.532;19.078;2022-10-26T17:18:42;101114.69;;;14.86;100.00
62124;BME280;48110;47.532;19.078;2022-10-26T17:21:50;101112.41;;;14.98;100.00
62124;BME280;48110;47.532;19.078;2022-10-26T17:24:56;101112.66;;;14.88;100.00
62124;BME280;48110;47.532;19.078;2022-10-26T17:28:02;101125.69;;;14.83;100.00
62124;BME280;48110;47.532;19.078;2022-10-26T17:31:11;101130.56;;;14.79;100.00
62124;BME280;48110;47.532;19.078;2022-10-26T17:34:22;101134.25;;;14.78;100.00
62124;BME280;48110;47.532;19.078;2022-10-26T17:37:29;101131.41;;;14.80;100.00
62124;BME280;48110;47.532;19.078;2022-10-26T17:40:34;101125.41;;;14.78;100.00
62124;BME280;48110;47.532;19.078;2022-10-26T17:43:41;101133.09;;;14.73;100.00
62124;BME280;48110;47.532;19.078;2022-10-26T17:46:50;101129.59;;;14.72;100.00
62124;BME280;48110;47.532;19.078;2022-10-26T17:49:57;101133.47;;;14.70;100.00
62124;BME280;48110;47.532;19.078;2022-10-26T17:53:07;101138.81;;;14.70;100.00
62124;BME280;48110;47.532;19.078;2022-10-26T17:56:16;101137.31;;;14.67;100.00
62124;BME280;48110;47.532;19.078;2022-10-26T17:59:23;101136.84;;;14.64;100.00
62124;BME280;48110;47.532;19.078;2022-10-26T18:02:29;101139.38;;;14.57;100.00
62124;BME280;48110;47.532;19.078;2022-10-26T18:05:38;101143.09;;;14.48;100.00
62124;BME280;48110;47.532;19.078;2022-10-26T18:08:46;101159.81;;;14.42;100.00
62124;BME280;48110;47.532;19.078;2022-10-26T18:11:53;101158.69;;;14.37;100.00
62124;BME280;48110;47.532;19.078;2022-10-26T18:15:00;101157.66;;;14.29;100.00